sensor_id;sensor_type;location;lat;lon;timestamp;P1;durP1;ratioP1;P2;durP2;ratioP2
13743;SDS011;6943;52.368;9.966;2023-09-19T00:00:36;4.77;;;3.20;;
13743;SDS011;6943;52.368;9.966;2023-09-19T00:03:04;3.33;;;2.57;;
13743;SDS011;6943;52.368;9.966;2023-09-19T00:05:33;5.60;;;4.77;;
13743;SDS011;6943;52.368;9.966;2023-09-19T00:08:00;2.73;;;2.30;;
13743;SDS011;6943;52.368;9.966;2023-09-19T00:10:31;2.37;;;2.10;;
13743;SDS011;6943;52.368;9.966;2023-09-19T00:13:00;5.53;;;3.80;;
13743;SDS011;6943;52.368;9.966;2023-09-19T00:15:29;3.93;;;2.80;;
13743;SDS011;6943;52.368;9.966;2023-09-19T00:17:55;2.40;;;1.80;;
13743;SDS011;6943;52.368;9.966;2023-09-19T00:20:21;4.17;;;2.60;;
13743;SDS011;6943;52.368;9.966;2023-09-19T00:22:48;3.10;;;2.00;;
13743;SDS011;6943;52.368;9.966;2023-09-19T00:25:18;2.97;;;2.40;;
13743;SDS011;6943;52.368;9.966;2023-09-19T00:27:44;2.90;;;2.20;;
13743;SDS011;6943;52.368;9.966;2023-09-19T00:30:10;1.93;;;1.73;;
13743;SDS011;6943;52.368;9.966;2023-09-19T00:32:45;4.10;;;2.20;;
13743;SDS011;6943;52.368;9.966;2023-09-19T00:35:12;3.03;;;1.60;;
13743;SDS011;6943;52.368;9.966;2023-09-19T00:37:41;2.43;;;1.80;;
13743;SDS011;6943;52.368;9.966;2023-09-19T00:40:08;2.00;;;1.70;;
13743;SDS011;6943;52.368;9.966;2023-09-19T00:42:44;4.00;;;2.80;;
13743;SDS011;6943;52.368;9.966;2023-09-19T00:45:12;3.10;;;2.20;;
13743;SDS011;6943;52.368;9.966;2023-09-19T00:47:39;5.37;;;3.33;;
13743;SDS011;6943;52.368;9.966;2023-09-19T00:50:15;4.07;;;2.50;;
13743;SDS011;6943;52.368;9.966;2023-09-19T00:52:46;2.77;;;2.47;;
13743;SDS011;6943;52.368;9.966;2023-09-19T00:55:14;3.23;;;2.57;;
13743;SDS011;6943;52.368;9.966;2023-09-19T00:57:41;5.17;;;4.13;;
13743;SDS011;6943;52.368;9.966;2023-09-19T01:00:09;4.13;;;3.03;;
13743;SDS011;6943;52.368;9.966;2023-09-19T01:02:43;7.23;;;5.80;;
13743;SDS011;6943;52.368;9.966;2023-09-19T01:05:09;4.77;;;4.23;;
13743;SDS011;6943;52.368;9.966;2023-09-19T01:07:35;4.87;;;4.20;;
13743;SDS011;6943;52.368;9.966;2023-09-19T01:10:05;5.27;;;3.60;;
13743;SDS011;6943;52.368;9.966;2023-09-19T01:18:01;5.40;;;3.90;;
13743;SDS011;6943;52.368;9.966;2023-09-19T01:20:39;4.33;;;3.77;;
13743;SDS011;6943;52.368;9.966;2023-09-19T01:29:38;7.40;;;5.50;;
13743;SDS011;6943;52.368;9.966;2023-09-19T01:32:05;5.87;;;3.73;;
13743;SDS011;6943;52.368;9.966;2023-09-19T01:37:17;4.67;;;3.80;;
13743;SDS011;6943;52.368;9.966;2023-09-19T01:39:49;5.50;;;4.17;;
13743;SDS011;6943;52.368;9.966;2023-09-19T01:42:27;9.27;;;4.87;;
13743;SDS011;6943;52.368;9.966;2023-09-19T01:47:52;6.47;;;4.70;;
13743;SDS011;6943;52.368;9.966;2023-09-19T01:53:06;5.70;;;4.83;;
13743;SDS011;6943;52.368;9.966;2023-09-19T01:55:41;5.93;;;4.90;;
13743;SDS011;6943;52.368;9.966;2023-09-19T01:58:16;7.87;;;4.87;;
13743;SDS011;6943;52.368;9.966;2023-09-19T02:01:01;6.37;;;4.47;;
13743;SDS011;6943;52.368;9.966;2023-09-19T02:03:30;8.87;;;4.53;;
13743;SDS011;6943;52.368;9.966;2023-09-19T02:05:58;6.57;;;5.10;;
13743;SDS011;6943;52.368;9.966;2023-09-19T02:08:24;8.57;;;5.27;;
13743;SDS011;6943;52.368;9.966;2023-09-19T02:10:50;8.40;;;4.93;;
13743;SDS011;6943;52.368;9.966;2023-09-19T02:13:16;7.53;;;4.87;;
13743;SDS011;6943;52.368;9.966;2023-09-19T02:15:44;7.20;;;5.13;;
13743;SDS011;6943;52.368;9.966;2023-09-19T02:18:10;11.53;;;5.37;;
13743;SDS011;6943;52.368;9.966;2023-09-19T02:20:36;8.17;;;5.30;;
13743;SDS011;6943;52.368;9.966;2023-09-19T02:23:02;8.53;;;5.27;;
13743;SDS011;6943;52.368;9.966;2023-09-19T02:25:28;5.40;;;4.90;;
13743;SDS011;6943;52.368;9.966;2023-09-19T02:27:54;5.90;;;5.30;;
13743;SDS011;6943;52.368;9.966;2023-09-19T02:30:23;10.60;;;5.17;;
13743;SDS011;6943;52.368;9.966;2023-09-19T02:32:52;7.37;;;5.30;;
13743;SDS011;6943;52.368;9.966;2023-09-19T02:35:17;7.47;;;5.13;;
13743;SDS011;6943;52.368;9.966;2023-09-19T02:37:44;7.53;;;5.50;;
13743;SDS011;6943;52.368;9.966;2023-09-19T02:40:11;9.27;;;5.20;;
13743;SDS011;6943;52.368;9.966;2023-09-19T02:42:47;8.67;;;4.50;;
13743;SDS011;6943;52.368;9.966;2023-09-19T02:45:18;5.93;;;4.87;;
13743;SDS011;6943;52.368;9.966;2023-09-19T02:47:44;6.40;;;4.47;;
13743;SDS011;6943;52.368;9.966;2023-09-19T02:50:10;6.17;;;4.77;;
13743;SDS011;6943;52.368;9.966;2023-09-19T02:52:36;7.33;;;4.73;;
13743;SDS011;6943;52.368;9.966;2023-09-19T02:55:02;8.20;;;5.00;;
13743;SDS011;6943;52.368;9.966;2023-09-19T02:57:30;7.90;;;5.40;;
13743;SDS011;6943;52.368;9.966;2023-09-19T02:59:58;13.00;;;5.30;;
13743;SDS011;6943;52.368;9.966;2023-09-19T03:02:25;8.03;;;5.33;;
13743;SDS011;6943;52.368;9.966;2023-09-19T03:04:52;6.27;;;5.03;;
13743;SDS011;6943;52.368;9.966;2023-09-19T03:07:17;8.43;;;5.63;;
13743;SDS011;6943;52.368;9.966;2023-09-19T03:09:43;6.60;;;5.23;;
13743;SDS011;6943;52.368;9.966;2023-09-19T03:12:09;6.03;;;5.43;;
13743;SDS011;6943;52.368;9.966;2023-09-19T03:14:35;6.13;;;5.27;;
13743;SDS011;6943;52.368;9.966;2023-09-19T03:17:01;10.77;;;6.13;;
13743;SDS011;6943;52.368;9.966;2023-09-19T03:19:30;11.10;;;6.10;;
13743;SDS011;6943;52.368;9.966;2023-09-19T03:21:58;7.20;;;4.97;;
13743;SDS011;6943;52.368;9.966;2023-09-19T03:24:24;8.77;;;6.23;;
13743;SDS011;6943;52.368;9.966;2023-09-19T03:26:50;7.83;;;5.37;;
13743;SDS011;6943;52.368;9.966;2023-09-19T03:29:15;9.77;;;5.53;;
13743;SDS011;6943;52.368;9.966;2023-09-19T03:31:42;12.37;;;5.27;;
13743;SDS011;6943;52.368;9.966;2023-09-19T03:34:07;6.70;;;5.37;;
13743;SDS011;6943;52.368;9.966;2023-09-19T03:36:33;7.57;;;5.37;;
13743;SDS011;6943;52.368;9.966;2023-09-19T03:38:59;7.10;;;5.27;;
13743;SDS011;6943;52.368;9.966;2023-09-19T03:41:25;7.23;;;4.83;;
13743;SDS011;6943;52.368;9.966;2023-09-19T03:43:50;11.40;;;4.37;;
13743;SDS011;6943;52.368;9.966;2023-09-19T03:46:16;5.57;;;4.20;;
13743;SDS011;6943;52.368;9.966;2023-09-19T03:48:41;10.73;;;4.90;;
13743;SDS011;6943;52.368;9.966;2023-09-19T03:51:07;7.97;;;4.57;;
13743;SDS011;6943;52.368;9.966;2023-09-19T03:53:33;7.00;;;4.47;;
13743;SDS011;6943;52.368;9.966;2023-09-19T03:55:58;6.20;;;4.80;;
13743;SDS011;6943;52.368;9.966;2023-09-19T03:58:25;6.77;;;4.17;;
13743;SDS011;6943;52.368;9.966;2023-09-19T04:00:53;9.80;;;4.70;;
13743;SDS011;6943;52.368;9.966;2023-09-19T04:03:20;8.37;;;4.43;;
13743;SDS011;6943;52.368;9.966;2023-09-19T04:05:46;11.13;;;4.03;;
13743;SDS011;6943;52.368;9.966;2023-09-19T04:08:14;9.83;;;4.33;;
13743;SDS011;6943;52.368;9.966;2023-09-19T04:10:43;6.20;;;4.27;;
13743;SDS011;6943;52.368;9.966;2023-09-19T04:13:10;11.00;;;4.77;;
13743;SDS011;6943;52.368;9.966;2023-09-19T04:15:36;9.33;;;4.50;;
13743;SDS011;6943;52.368;9.966;2023-09-19T04:18:02;9.17;;;4.13;;
13743;SDS011;6943;52.368;9.966;2023-09-19T04:20:28;13.57;;;4.17;;
13743;SDS011;6943;52.368;9.966;2023-09-19T04:22:54;8.27;;;4.47;;
13743;SDS011;6943;52.368;9.966;2023-09-19T04:25:19;10.93;;;4.57;;
13743;SDS011;6943;52.368;9.966;2023-09-19T04:27:45;8.93;;;4.17;;
13743;SDS011;6943;52.368;9.966;2023-09-19T04:30:14;9.80;;;4.70;;
13743;SDS011;6943;52.368;9.966;2023-09-19T04:32:40;8.97;;;4.20;;
13743;SDS011;6943;52.368;9.966;2023-09-19T04:35:09;10.07;;;3.70;;
13743;SDS011;6943;52.368;9.966;2023-09-19T04:37:36;8.67;;;4.60;;
13743;SDS011;6943;52.368;9.966;2023-09-19T04:40:03;7.40;;;3.93;;
13743;SDS011;6943;52.368;9.966;2023-09-19T04:42:31;10.37;;;4.60;;
13743;SDS011;6943;52.368;9.966;2023-09-19T04:44:56;8.63;;;4.70;;
13743;SDS011;6943;52.368;9.966;2023-09-19T04:47:22;7.20;;;4.63;;
13743;SDS011;6943;52.368;9.966;2023-09-19T04:49:47;9.67;;;4.87;;
13743;SDS011;6943;52.368;9.966;2023-09-19T04:52:13;9.83;;;4.93;;
13743;SDS011;6943;52.368;9.966;2023-09-19T04:54:40;8.50;;;4.93;;
13743;SDS011;6943;52.368;9.966;2023-09-19T04:57:06;7.30;;;5.03;;
13743;SDS011;6943;52.368;9.966;2023-09-19T04:59:32;7.67;;;5.03;;
13743;SDS011;6943;52.368;9.966;2023-09-19T05:01:58;7.27;;;5.03;;
13743;SDS011;6943;52.368;9.966;2023-09-19T05:04:23;7.47;;;5.63;;
13743;SDS011;6943;52.368;9.966;2023-09-19T05:06:49;8.50;;;5.87;;
13743;SDS011;6943;52.368;9.966;2023-09-19T05:09:15;8.33;;;5.20;;
13743;SDS011;6943;52.368;9.966;2023-09-19T05:11:45;7.20;;;5.30;;
13743;SDS011;6943;52.368;9.966;2023-09-19T05:14:11;11.57;;;6.63;;
13743;SDS011;6943;52.368;9.966;2023-09-19T05:16:36;8.77;;;5.80;;
13743;SDS011;6943;52.368;9.966;2023-09-19T05:19:02;8.87;;;6.10;;
13743;SDS011;6943;52.368;9.966;2023-09-19T05:21:28;8.90;;;6.37;;
13743;SDS011;6943;52.368;9.966;2023-09-19T05:23:55;9.60;;;6.70;;
13743;SDS011;6943;52.368;9.966;2023-09-19T05:26:21;9.33;;;6.90;;
13743;SDS011;6943;52.368;9.966;2023-09-19T05:28:47;9.43;;;7.03;;
13743;SDS011;6943;52.368;9.966;2023-09-19T05:31:15;9.97;;;6.50;;
13743;SDS011;6943;52.368;9.966;2023-09-19T05:33:41;8.97;;;6.43;;
13743;SDS011;6943;52.368;9.966;2023-09-19T05:36:07;12.83;;;6.83;;
13743;SDS011;6943;52.368;9.966;2023-09-19T05:38:35;9.27;;;6.30;;
13743;SDS011;6943;52.368;9.966;2023-09-19T05:41:01;8.67;;;6.50;;
13743;SDS011;6943;52.368;9.966;2023-09-19T05:43:27;10.33;;;6.43;;
13743;SDS011;6943;52.368;9.966;2023-09-19T05:45:53;8.03;;;5.90;;
13743;SDS011;6943;52.368;9.966;2023-09-19T05:48:21;11.97;;;6.43;;
13743;SDS011;6943;52.368;9.966;2023-09-19T05:50:47;14.00;;;6.13;;
13743;SDS011;6943;52.368;9.966;2023-09-19T05:53:13;12.77;;;5.77;;
13743;SDS011;6943;52.368;9.966;2023-09-19T05:55:39;9.43;;;6.83;;
13743;SDS011;6943;52.368;9.966;2023-09-19T05:58:05;11.67;;;6.20;;
13743;SDS011;6943;52.368;9.966;2023-09-19T06:00:31;9.17;;;5.47;;
13743;SDS011;6943;52.368;9.966;2023-09-19T06:02:57;9.67;;;5.23;;
13743;SDS011;6943;52.368;9.966;2023-09-19T06:05:24;6.80;;;5.10;;
13743;SDS011;6943;52.368;9.966;2023-09-19T06:07:51;9.40;;;4.97;;
13743;SDS011;6943;52.368;9.966;2023-09-19T06:10:18;10.20;;;4.97;;
13743;SDS011;6943;52.368;9.966;2023-09-19T06:12:45;10.10;;;4.63;;
13743;SDS011;6943;52.368;9.966;2023-09-19T06:15:14;9.67;;;4.50;;
13743;SDS011;6943;52.368;9.966;2023-09-19T06:17:51;13.23;;;5.20;;
13743;SDS011;6943;52.368;9.966;2023-09-19T06:20:20;8.70;;;4.43;;
13743;SDS011;6943;52.368;9.966;2023-09-19T06:22:48;7.37;;;4.03;;
13743;SDS011;6943;52.368;9.966;2023-09-19T06:25:14;6.97;;;4.63;;
13743;SDS011;6943;52.368;9.966;2023-09-19T06:27:44;7.60;;;4.00;;
13743;SDS011;6943;52.368;9.966;2023-09-19T06:30:14;6.80;;;3.40;;
13743;SDS011;6943;52.368;9.966;2023-09-19T06:32:40;5.50;;;3.58;;
13743;SDS011;6943;52.368;9.966;2023-09-19T06:35:09;7.60;;;3.88;;
13743;SDS011;6943;52.368;9.966;2023-09-19T06:37:39;8.75;;;3.60;;
13743;SDS011;6943;52.368;9.966;2023-09-19T06:40:06;12.90;;;4.45;;
13743;SDS011;6943;52.368;9.966;2023-09-19T06:42:33;10.52;;;3.55;;
13743;SDS011;6943;52.368;9.966;2023-09-19T06:45:00;10.23;;;4.22;;
13743;SDS011;6943;52.368;9.966;2023-09-19T06:47:25;7.45;;;3.60;;
13743;SDS011;6943;52.368;9.966;2023-09-19T06:49:51;8.63;;;3.53;;
13743;SDS011;6943;52.368;9.966;2023-09-19T06:52:17;7.35;;;3.40;;
13743;SDS011;6943;52.368;9.966;2023-09-19T06:54:46;8.77;;;3.22;;
13743;SDS011;6943;52.368;9.966;2023-09-19T06:57:12;6.35;;;3.25;;
13743;SDS011;6943;52.368;9.966;2023-09-19T06:59:38;7.60;;;3.38;;
13743;SDS011;6943;52.368;9.966;2023-09-19T07:02:05;8.60;;;4.03;;
13743;SDS011;6943;52.368;9.966;2023-09-19T07:04:31;6.40;;;3.17;;
13743;SDS011;6943;52.368;9.966;2023-09-19T07:06:57;8.50;;;3.38;;
13743;SDS011;6943;52.368;9.966;2023-09-19T07:09:23;6.88;;;3.38;;
13743;SDS011;6943;52.368;9.966;2023-09-19T07:11:52;8.07;;;3.38;;
13743;SDS011;6943;52.368;9.966;2023-09-19T07:14:18;7.03;;;3.17;;
13743;SDS011;6943;52.368;9.966;2023-09-19T07:16:43;7.47;;;3.22;;
13743;SDS011;6943;52.368;9.966;2023-09-19T07:19:10;8.07;;;3.72;;
13743;SDS011;6943;52.368;9.966;2023-09-19T07:21:36;8.00;;;3.40;;
13743;SDS011;6943;52.368;9.966;2023-09-19T07:24:03;8.00;;;3.22;;
13743;SDS011;6943;52.368;9.966;2023-09-19T07:26:29;6.45;;;3.17;;
13743;SDS011;6943;52.368;9.966;2023-09-19T07:28:56;10.93;;;3.95;;
13743;SDS011;6943;52.368;9.966;2023-09-19T07:31:22;8.40;;;3.17;;
13743;SDS011;6943;52.368;9.966;2023-09-19T07:33:48;7.75;;;2.65;;
13743;SDS011;6943;52.368;9.966;2023-09-19T07:36:14;7.55;;;3.00;;
13743;SDS011;6943;52.368;9.966;2023-09-19T07:38:40;7.20;;;3.33;;
13743;SDS011;6943;52.368;9.966;2023-09-19T07:41:06;7.72;;;2.97;;
13743;SDS011;6943;52.368;9.966;2023-09-19T07:43:34;5.03;;;3.35;;
13743;SDS011;6943;52.368;9.966;2023-09-19T07:46:05;6.78;;;2.35;;
13743;SDS011;6943;52.368;9.966;2023-09-19T07:48:32;8.30;;;2.95;;
13743;SDS011;6943;52.368;9.966;2023-09-19T07:51:02;8.05;;;2.60;;
13743;SDS011;6943;52.368;9.966;2023-09-19T07:53:29;5.55;;;2.45;;
13743;SDS011;6943;52.368;9.966;2023-09-19T07:56:01;7.03;;;2.55;;
13743;SDS011;6943;52.368;9.966;2023-09-19T07:58:34;3.40;;;2.00;;
13743;SDS011;6943;52.368;9.966;2023-09-19T08:01:03;7.80;;;2.65;;
13743;SDS011;6943;52.368;9.966;2023-09-19T08:03:33;6.07;;;2.03;;
13743;SDS011;6943;52.368;9.966;2023-09-19T08:05:59;7.43;;;2.33;;
13743;SDS011;6943;52.368;9.966;2023-09-19T08:08:26;5.97;;;2.47;;
13743;SDS011;6943;52.368;9.966;2023-09-19T08:10:52;8.43;;;2.55;;
13743;SDS011;6943;52.368;9.966;2023-09-19T08:13:22;9.15;;;2.50;;
13743;SDS011;6943;52.368;9.966;2023-09-19T08:15:48;5.50;;;2.60;;
13743;SDS011;6943;52.368;9.966;2023-09-19T08:18:14;7.05;;;2.70;;
13743;SDS011;6943;52.368;9.966;2023-09-19T08:20:41;7.60;;;2.60;;
13743;SDS011;6943;52.368;9.966;2023-09-19T08:23:11;9.02;;;2.65;;
13743;SDS011;6943;52.368;9.966;2023-09-19T08:25:37;6.63;;;2.58;;
13743;SDS011;6943;52.368;9.966;2023-09-19T08:28:04;6.22;;;2.35;;
13743;SDS011;6943;52.368;9.966;2023-09-19T08:30:33;6.55;;;2.38;;
13743;SDS011;6943;52.368;9.966;2023-09-19T08:32:59;6.22;;;2.25;;
13743;SDS011;6943;52.368;9.966;2023-09-19T08:35:26;6.47;;;2.10;;
13743;SDS011;6943;52.368;9.966;2023-09-19T08:37:52;8.85;;;3.10;;
13743;SDS011;6943;52.368;9.966;2023-09-19T08:40:18;7.35;;;2.20;;
13743;SDS011;6943;52.368;9.966;2023-09-19T08:42:55;5.63;;;2.20;;
13743;SDS011;6943;52.368;9.966;2023-09-19T08:45:22;5.50;;;2.30;;
13743;SDS011;6943;52.368;9.966;2023-09-19T08:56:08;7.57;;;2.40;;
13743;SDS011;6943;52.368;9.966;2023-09-19T08:58:39;4.32;;;2.38;;
13743;SDS011;6943;52.368;9.966;2023-09-19T09:01:12;6.63;;;2.53;;
13743;SDS011;6943;52.368;9.966;2023-09-19T09:03:39;5.55;;;2.20;;
13743;SDS011;6943;52.368;9.966;2023-09-19T09:06:08;8.07;;;2.20;;
13743;SDS011;6943;52.368;9.966;2023-09-19T09:08:40;5.03;;;2.00;;
13743;SDS011;6943;52.368;9.966;2023-09-19T09:11:05;6.78;;;2.33;;
13743;SDS011;6943;52.368;9.966;2023-09-19T09:13:32;5.72;;;2.50;;
13743;SDS011;6943;52.368;9.966;2023-09-19T09:16:00;5.15;;;2.35;;
13743;SDS011;6943;52.368;9.966;2023-09-19T09:18:28;5.13;;;2.15;;
13743;SDS011;6943;52.368;9.966;2023-09-19T09:20:57;6.22;;;2.13;;
13743;SDS011;6943;52.368;9.966;2023-09-19T09:23:22;6.47;;;2.40;;
13743;SDS011;6943;52.368;9.966;2023-09-19T09:25:51;6.88;;;2.13;;
13743;SDS011;6943;52.368;9.966;2023-09-19T09:28:21;7.55;;;2.20;;
13743;SDS011;6943;52.368;9.966;2023-09-19T09:30:48;3.88;;;2.28;;
13743;SDS011;6943;52.368;9.966;2023-09-19T09:33:15;7.25;;;2.42;;
13743;SDS011;6943;52.368;9.966;2023-09-19T09:35:51;6.40;;;2.45;;
13743;SDS011;6943;52.368;9.966;2023-09-19T09:38:20;6.13;;;2.05;;
13743;SDS011;6943;52.368;9.966;2023-09-19T09:40:47;7.40;;;2.45;;
13743;SDS011;6943;52.368;9.966;2023-09-19T09:43:25;4.38;;;2.00;;
13743;SDS011;6943;52.368;9.966;2023-09-19T09:46:07;5.65;;;1.92;;
13743;SDS011;6943;52.368;9.966;2023-09-19T09:49:07;5.53;;;2.03;;
13743;SDS011;6943;52.368;9.966;2023-09-19T09:51:50;7.75;;;2.63;;
13743;SDS011;6943;52.368;9.966;2023-09-19T09:54:24;10.25;;;2.95;;
13743;SDS011;6943;52.368;9.966;2023-09-19T09:57:07;6.60;;;2.07;;
13743;SDS011;6943;52.368;9.966;2023-09-19T10:02:25;4.95;;;2.10;;
13743;SDS011;6943;52.368;9.966;2023-09-19T10:05:03;6.77;;;2.37;;
13743;SDS011;6943;52.368;9.966;2023-09-19T10:07:45;7.65;;;2.00;;
13743;SDS011;6943;52.368;9.966;2023-09-19T10:13:19;4.13;;;2.00;;
13743;SDS011;6943;52.368;9.966;2023-09-19T10:15:48;5.63;;;2.10;;
13743;SDS011;6943;52.368;9.966;2023-09-19T10:18:21;9.63;;;2.67;;
13743;SDS011;6943;52.368;9.966;2023-09-19T10:20:51;14.43;;;2.20;;
13743;SDS011;6943;52.368;9.966;2023-09-19T10:23:18;6.83;;;2.30;;
13743;SDS011;6943;52.368;9.966;2023-09-19T10:25:48;5.60;;;2.37;;
13743;SDS011;6943;52.368;9.966;2023-09-19T10:28:15;8.83;;;2.93;;
13743;SDS011;6943;52.368;9.966;2023-09-19T10:30:47;6.07;;;1.90;;
13743;SDS011;6943;52.368;9.966;2023-09-19T10:33:19;6.70;;;2.20;;
13743;SDS011;6943;52.368;9.966;2023-09-19T10:35:51;8.63;;;2.57;;
13743;SDS011;6943;52.368;9.966;2023-09-19T10:38:22;5.97;;;2.23;;
13743;SDS011;6943;52.368;9.966;2023-09-19T10:40:50;5.57;;;2.00;;
13743;SDS011;6943;52.368;9.966;2023-09-19T10:43:18;9.63;;;2.40;;
13743;SDS011;6943;52.368;9.966;2023-09-19T10:45:46;5.30;;;2.23;;
13743;SDS011;6943;52.368;9.966;2023-09-19T10:48:14;6.97;;;2.30;;
13743;SDS011;6943;52.368;9.966;2023-09-19T10:56:32;7.23;;;2.70;;
13743;SDS011;6943;52.368;9.966;2023-09-19T10:59:10;8.43;;;2.30;;
13743;SDS011;6943;52.368;9.966;2023-09-19T11:04:31;7.07;;;2.20;;
13743;SDS011;6943;52.368;9.966;2023-09-19T11:07:01;6.63;;;2.13;;
13743;SDS011;6943;52.368;9.966;2023-09-19T11:14:56;6.53;;;2.40;;
13743;SDS011;6943;52.368;9.966;2023-09-19T11:30:49;5.00;;;2.47;;
13743;SDS011;6943;52.368;9.966;2023-09-19T11:43:45;7.37;;;2.40;;
13743;SDS011;6943;52.368;9.966;2023-09-19T11:46:11;4.97;;;2.37;;
13743;SDS011;6943;52.368;9.966;2023-09-19T11:48:41;6.17;;;2.50;;
13743;SDS011;6943;52.368;9.966;2023-09-19T11:51:12;5.97;;;2.10;;
13743;SDS011;6943;52.368;9.966;2023-09-19T11:53:47;4.53;;;1.90;;
13743;SDS011;6943;52.368;9.966;2023-09-19T11:56:14;7.03;;;2.37;;
13743;SDS011;6943;52.368;9.966;2023-09-19T11:58:46;7.00;;;2.13;;
13743;SDS011;6943;52.368;9.966;2023-09-19T12:01:14;11.10;;;2.80;;
13743;SDS011;6943;52.368;9.966;2023-09-19T12:03:46;9.87;;;2.73;;
13743;SDS011;6943;52.368;9.966;2023-09-19T12:06:17;7.70;;;2.27;;
13743;SDS011;6943;52.368;9.966;2023-09-19T12:08:43;5.13;;;2.67;;
13743;SDS011;6943;52.368;9.966;2023-09-19T12:11:14;5.50;;;2.30;;
13743;SDS011;6943;52.368;9.966;2023-09-19T12:13:47;8.50;;;3.23;;
13743;SDS011;6943;52.368;9.966;2023-09-19T12:16:16;8.03;;;2.57;;
13743;SDS011;6943;52.368;9.966;2023-09-19T12:18:46;8.27;;;2.80;;
13743;SDS011;6943;52.368;9.966;2023-09-19T12:21:28;9.43;;;2.90;;
13743;SDS011;6943;52.368;9.966;2023-09-19T12:26:40;8.00;;;2.50;;
13743;SDS011;6943;52.368;9.966;2023-09-19T12:29:19;4.90;;;1.93;;
13743;SDS011;6943;52.368;9.966;2023-09-19T12:31:53;4.73;;;2.20;;
13743;SDS011;6943;52.368;9.966;2023-09-19T12:34:32;4.93;;;2.60;;
13743;SDS011;6943;52.368;9.966;2023-09-19T12:37:03;7.23;;;2.97;;
13743;SDS011;6943;52.368;9.966;2023-09-19T12:39:52;5.50;;;2.60;;
13743;SDS011;6943;52.368;9.966;2023-09-19T12:42:21;5.23;;;2.73;;
13743;SDS011;6943;52.368;9.966;2023-09-19T12:44:48;9.27;;;2.90;;
13743;SDS011;6943;52.368;9.966;2023-09-19T12:47:20;5.17;;;2.40;;
13743;SDS011;6943;52.368;9.966;2023-09-19T12:52:38;10.13;;;2.80;;
13743;SDS011;6943;52.368;9.966;2023-09-19T12:55:05;6.17;;;2.63;;
13743;SDS011;6943;52.368;9.966;2023-09-19T12:57:35;8.40;;;2.90;;
13743;SDS011;6943;52.368;9.966;2023-09-19T13:00:04;5.33;;;2.40;;
13743;SDS011;6943;52.368;9.966;2023-09-19T13:02:36;5.53;;;2.17;;
13743;SDS011;6943;52.368;9.966;2023-09-19T13:05:02;8.47;;;2.40;;
13743;SDS011;6943;52.368;9.966;2023-09-19T13:07:41;7.80;;;2.37;;
13743;SDS011;6943;52.368;9.966;2023-09-19T13:10:09;5.03;;;2.13;;
13743;SDS011;6943;52.368;9.966;2023-09-19T13:12:35;8.47;;;2.37;;
13743;SDS011;6943;52.368;9.966;2023-09-19T13:15:15;6.53;;;2.63;;
13743;SDS011;6943;52.368;9.966;2023-09-19T13:17:48;9.47;;;2.67;;
13743;SDS011;6943;52.368;9.966;2023-09-19T13:20:26;6.47;;;2.83;;
13743;SDS011;6943;52.368;9.966;2023-09-19T13:22:53;6.73;;;2.20;;
13743;SDS011;6943;52.368;9.966;2023-09-19T13:25:23;7.63;;;2.77;;
13743;SDS011;6943;52.368;9.966;2023-09-19T13:27:50;6.60;;;3.03;;
13743;SDS011;6943;52.368;9.966;2023-09-19T13:30:21;6.73;;;2.60;;
13743;SDS011;6943;52.368;9.966;2023-09-19T13:32:48;6.57;;;2.77;;
13743;SDS011;6943;52.368;9.966;2023-09-19T13:35:14;6.80;;;2.23;;
13743;SDS011;6943;52.368;9.966;2023-09-19T13:37:40;5.72;;;2.88;;
13743;SDS011;6943;52.368;9.966;2023-09-19T13:40:08;5.23;;;2.47;;
13743;SDS011;6943;52.368;9.966;2023-09-19T13:42:38;6.63;;;2.50;;
13743;SDS011;6943;52.368;9.966;2023-09-19T13:45:05;6.20;;;2.73;;
13743;SDS011;6943;52.368;9.966;2023-09-19T13:47:31;7.25;;;2.55;;
13743;SDS011;6943;52.368;9.966;2023-09-19T13:49:58;4.72;;;2.70;;
13743;SDS011;6943;52.368;9.966;2023-09-19T13:52:24;5.60;;;2.50;;
13743;SDS011;6943;52.368;9.966;2023-09-19T13:54:53;6.80;;;2.53;;
13743;SDS011;6943;52.368;9.966;2023-09-19T13:57:21;5.37;;;2.57;;
13743;SDS011;6943;52.368;9.966;2023-09-19T13:59:51;7.75;;;2.38;;
13743;SDS011;6943;52.368;9.966;2023-09-19T14:02:20;8.37;;;2.70;;
13743;SDS011;6943;52.368;9.966;2023-09-19T14:04:49;8.67;;;3.13;;
13743;SDS011;6943;52.368;9.966;2023-09-19T14:07:15;6.47;;;2.70;;
13743;SDS011;6943;52.368;9.966;2023-09-19T14:09:43;6.23;;;2.37;;
13743;SDS011;6943;52.368;9.966;2023-09-19T14:12:09;6.65;;;2.80;;
13743;SDS011;6943;52.368;9.966;2023-09-19T14:14:35;5.07;;;2.20;;
13743;SDS011;6943;52.368;9.966;2023-09-19T14:17:02;7.07;;;2.43;;
13743;SDS011;6943;52.368;9.966;2023-09-19T14:19:28;6.00;;;2.17;;
13743;SDS011;6943;52.368;9.966;2023-09-19T14:21:53;4.83;;;2.20;;
13743;SDS011;6943;52.368;9.966;2023-09-19T14:24:22;6.10;;;2.30;;
13743;SDS011;6943;52.368;9.966;2023-09-19T14:26:48;5.47;;;2.60;;
13743;SDS011;6943;52.368;9.966;2023-09-19T14:29:14;5.07;;;2.30;;
13743;SDS011;6943;52.368;9.966;2023-09-19T14:31:41;9.90;;;2.50;;
13743;SDS011;6943;52.368;9.966;2023-09-19T14:34:07;6.97;;;2.60;;
13743;SDS011;6943;52.368;9.966;2023-09-19T14:36:36;7.37;;;2.23;;
13743;SDS011;6943;52.368;9.966;2023-09-19T14:39:03;5.93;;;2.77;;
13743;SDS011;6943;52.368;9.966;2023-09-19T14:41:30;6.83;;;3.27;;
13743;SDS011;6943;52.368;9.966;2023-09-19T14:43:56;5.03;;;2.63;;
13743;SDS011;6943;52.368;9.966;2023-09-19T14:46:22;6.20;;;2.20;;
13743;SDS011;6943;52.368;9.966;2023-09-19T14:48:50;6.83;;;2.40;;
13743;SDS011;6943;52.368;9.966;2023-09-19T14:51:16;3.60;;;2.08;;
13743;SDS011;6943;52.368;9.966;2023-09-19T14:53:43;9.30;;;3.37;;
13743;SDS011;6943;52.368;9.966;2023-09-19T14:56:10;8.07;;;2.43;;
13743;SDS011;6943;52.368;9.966;2023-09-19T14:58:36;6.57;;;2.60;;
13743;SDS011;6943;52.368;9.966;2023-09-19T15:01:13;4.70;;;2.43;;
13743;SDS011;6943;52.368;9.966;2023-09-19T15:03:39;6.23;;;2.77;;
13743;SDS011;6943;52.368;9.966;2023-09-19T15:06:09;5.50;;;2.57;;
13743;SDS011;6943;52.368;9.966;2023-09-19T15:08:42;6.07;;;2.73;;
13743;SDS011;6943;52.368;9.966;2023-09-19T15:11:18;7.77;;;2.63;;
13743;SDS011;6943;52.368;9.966;2023-09-19T15:13:45;4.40;;;2.60;;
13743;SDS011;6943;52.368;9.966;2023-09-19T15:16:11;5.30;;;2.60;;
13743;SDS011;6943;52.368;9.966;2023-09-19T15:18:39;5.10;;;2.27;;
13743;SDS011;6943;52.368;9.966;2023-09-19T15:21:07;7.47;;;2.20;;
13743;SDS011;6943;52.368;9.966;2023-09-19T15:23:34;5.03;;;2.73;;
13743;SDS011;6943;52.368;9.966;2023-09-19T15:26:01;7.13;;;2.60;;
13743;SDS011;6943;52.368;9.966;2023-09-19T15:28:31;5.03;;;2.07;;
13743;SDS011;6943;52.368;9.966;2023-09-19T15:31:02;4.60;;;2.30;;
13743;SDS011;6943;52.368;9.966;2023-09-19T15:33:28;6.67;;;2.40;;
13743;SDS011;6943;52.368;9.966;2023-09-19T15:41:23;5.60;;;2.40;;
13743;SDS011;6943;52.368;9.966;2023-09-19T15:43:49;7.80;;;2.87;;
13743;SDS011;6943;52.368;9.966;2023-09-19T15:46:15;7.23;;;2.43;;
13743;SDS011;6943;52.368;9.966;2023-09-19T15:48:41;5.17;;;2.50;;
13743;SDS011;6943;52.368;9.966;2023-09-19T15:51:07;6.27;;;3.33;;
13743;SDS011;6943;52.368;9.966;2023-09-19T15:53:43;4.63;;;2.40;;
13743;SDS011;6943;52.368;9.966;2023-09-19T15:56:13;5.53;;;2.80;;
13743;SDS011;6943;52.368;9.966;2023-09-19T15:58:40;3.83;;;2.40;;
13743;SDS011;6943;52.368;9.966;2023-09-19T16:01:06;7.17;;;2.70;;
13743;SDS011;6943;52.368;9.966;2023-09-19T16:03:38;3.87;;;2.20;;
13743;SDS011;6943;52.368;9.966;2023-09-19T16:06:08;4.47;;;2.40;;
13743;SDS011;6943;52.368;9.966;2023-09-19T16:08:47;7.10;;;2.30;;
13743;SDS011;6943;52.368;9.966;2023-09-19T16:11:13;4.33;;;1.93;;
13743;SDS011;6943;52.368;9.966;2023-09-19T16:13:41;5.23;;;2.20;;
13743;SDS011;6943;52.368;9.966;2023-09-19T16:16:07;4.23;;;2.20;;
13743;SDS011;6943;52.368;9.966;2023-09-19T16:18:37;4.27;;;2.40;;
13743;SDS011;6943;52.368;9.966;2023-09-19T16:21:13;4.17;;;1.50;;
13743;SDS011;6943;52.368;9.966;2023-09-19T16:23:39;7.87;;;2.13;;
13743;SDS011;6943;52.368;9.966;2023-09-19T16:26:05;4.17;;;2.20;;
13743;SDS011;6943;52.368;9.966;2023-09-19T16:28:37;4.80;;;2.27;;
13743;SDS011;6943;52.368;9.966;2023-09-19T16:31:03;7.77;;;2.33;;